createdAt,value
2022-09-14T00:01:47.433Z,74.17
2022-09-14T00:04:20.490Z,74.21
2022-09-14T00:06:49.608Z,74.14
2022-09-14T00:09:22.926Z,74.31
2022-09-14T00:11:52.035Z,74.43
2022-09-14T00:14:20.441Z,74.31
2022-09-14T00:16:49.944Z,74.59
2022-09-14T00:19:25.044Z,74.51
2022-09-14T00:21:55.972Z,74.66
2022-09-14T00:24:30.978Z,74.68
2022-09-14T00:27:03.047Z,74.73
2022-09-14T00:29:33.454Z,74.82
2022-09-14T00:32:02.219Z,74.79
2022-09-14T00:34:30.623Z,74.85
2022-09-14T00:36:58.860Z,75.09
2022-09-14T00:39:28.515Z,75.08
2022-09-14T00:41:56.970Z,75.23
2022-09-14T00:44:25.114Z,75.10
2022-09-14T00:46:57.266Z,75.37
2022-09-14T00:49:27.135Z,75.55
2022-09-14T00:52:22.487Z,75.79
2022-09-14T00:54:58.596Z,76.00
2022-09-14T00:57:33.787Z,76.00
2022-09-14T01:00:02.437Z,75.90
2022-09-14T01:02:30.698Z,75.56
2022-09-14T01:04:59.054Z,75.51
2022-09-14T01:07:52.160Z,75.53
2022-09-14T01:10:45.012Z,75.76
2022-09-14T01:13:53.937Z,75.64
2022-09-14T01:16:42.664Z,75.66
2022-09-14T01:19:23.794Z,75.59
2022-09-14T01:21:56.886Z,75.33
2022-09-14T01:24:46.237Z,75.47
2022-09-14T01:27:24.093Z,75.35
2022-09-14T01:30:10.903Z,75.08
2022-09-14T01:32:45.198Z,75.21
2022-09-14T01:35:33.630Z,75.26
2022-09-14T01:38:10.587Z,75.14
2022-09-14T01:40:47.266Z,75.13
2022-09-14T01:43:30.065Z,75.17
2022-09-14T01:46:05.520Z,75.36
2022-09-14T01:48:45.464Z,75.23
2022-09-14T01:51:20.329Z,75.14
2022-09-14T01:53:54.969Z,75.04
2022-09-14T01:56:32.413Z,75.21
2022-09-14T01:59:11.039Z,75.24
2022-09-14T02:02:03.056Z,74.95
2022-09-14T02:04:41.519Z,74.93
2022-09-14T02:07:11.111Z,74.99
2022-09-14T02:09:40.365Z,74.95
2022-09-14T02:12:09.032Z,75.17
2022-09-14T02:14:37.787Z,74.86
2022-09-14T02:17:08.492Z,75.03
2022-09-14T02:19:44.123Z,74.81
2022-09-14T02:22:13.053Z,74.79
2022-09-14T02:24:42.022Z,74.91
2022-09-14T02:27:10.297Z,74.72
2022-09-14T02:29:38.928Z,74.94
2022-09-14T02:32:41.365Z,74.83
2022-09-14T02:35:35.511Z,74.93
2022-09-14T02:38:28.293Z,75.01
2022-09-14T02:41:17.769Z,75.11
2022-09-14T02:44:06.874Z,75.29
2022-09-14T02:46:43.958Z,75.27
2022-09-14T02:49:37.417Z,75.48
2022-09-14T02:52:31.155Z,75.52
2022-09-14T02:55:13.278Z,75.74
2022-09-14T02:58:05.667Z,75.88
2022-09-14T03:00:40.489Z,75.71
2022-09-14T03:03:12.125Z,75.94
2022-09-14T03:05:44.427Z,76.00
2022-09-14T03:08:12.882Z,76.25
2022-09-14T03:10:44.894Z,76.06
2022-09-14T03:13:13.134Z,76.19
2022-09-14T03:15:41.893Z,76.44
2022-09-14T03:18:14.289Z,76.47
2022-09-14T03:20:43.556Z,76.55
2022-09-14T03:23:13.786Z,76.64
2022-09-14T03:25:44.295Z,76.52
2022-09-14T03:28:13.006Z,76.62
2022-09-14T03:30:42.564Z,76.73
2022-09-14T03:33:12.605Z,76.62
2022-09-14T03:35:41.296Z,76.74
2022-09-14T03:38:09.653Z,76.74
2022-09-14T03:40:39.100Z,77.11
2022-09-14T03:43:07.395Z,77.10
2022-09-14T03:45:37.258Z,77.15
2022-09-14T03:48:06.206Z,77.24
2022-09-14T03:50:34.565Z,77.13
2022-09-14T03:53:05.022Z,77.47
2022-09-14T03:55:33.440Z,77.49
2022-09-14T03:58:01.740Z,77.55
2022-09-14T04:00:30.077Z,77.39
2022-09-14T04:03:00.952Z,77.66
2022-09-14T04:05:29.311Z,77.72
2022-09-14T04:07:57.529Z,77.62
2022-09-14T04:10:26.013Z,77.67
2022-09-14T04:12:54.305Z,77.88
2022-09-14T04:15:22.553Z,77.92
2022-09-14T04:17:51.424Z,78.03
2022-09-14T04:20:20.257Z,78.11
2022-09-14T04:22:48.888Z,78.18
2022-09-14T04:25:17.309Z,78.22
2022-09-14T04:27:54.996Z,78.48
2022-09-14T04:30:32.750Z,78.39
2022-09-14T04:33:01.009Z,78.50
2022-09-14T04:35:29.219Z,78.53
2022-09-14T04:37:57.446Z,78.54
2022-09-14T04:40:26.260Z,78.57
2022-09-14T04:42:55.051Z,78.71
2022-09-14T04:45:23.287Z,78.86
2022-09-14T04:47:51.526Z,78.81
2022-09-14T04:50:19.676Z,78.94
2022-09-14T04:52:47.885Z,79.23
2022-09-14T04:55:16.335Z,79.05
2022-09-14T04:57:44.588Z,79.07
2022-09-14T05:00:13.393Z,79.15
2022-09-14T05:02:43.042Z,78.98
2022-09-14T05:05:11.459Z,79.22
2022-09-14T05:07:39.639Z,78.96
2022-09-14T05:10:08.558Z,78.97
2022-09-14T05:12:36.794Z,78.95
2022-09-14T05:15:05.606Z,78.95
2022-09-14T05:17:35.597Z,78.80
2022-09-14T05:20:04.019Z,78.70
2022-09-14T05:22:32.252Z,78.82
2022-09-14T05:25:00.606Z,78.58
2022-09-14T05:27:28.903Z,78.56
2022-09-14T05:29:57.130Z,78.55
2022-09-14T05:32:25.398Z,78.27
2022-09-14T05:34:53.598Z,78.27
2022-09-14T05:37:21.855Z,78.24
2022-09-14T05:39:50.385Z,78.37
2022-09-14T05:42:18.705Z,78.31
2022-09-14T05:44:46.957Z,78.21
2022-09-14T05:47:15.261Z,78.29
2022-09-14T05:49:43.574Z,78.19
2022-09-14T05:52:11.699Z,77.87
2022-09-14T05:54:40.011Z,77.81
2022-09-14T05:57:08.187Z,77.66
2022-09-14T05:59:36.562Z,77.66
2022-09-14T06:02:04.988Z,77.79
2022-09-14T06:04:33.312Z,77.65
2022-09-14T06:07:18.006Z,77.80
2022-09-14T06:09:47.898Z,77.59
2022-09-14T06:12:16.128Z,77.36
2022-09-14T06:14:44.379Z,77.36
2022-09-14T06:17:12.687Z,76.95
2022-09-14T06:19:40.997Z,77.20
2022-09-14T06:22:09.178Z,77.06
2022-09-14T06:24:37.554Z,76.74
2022-09-14T06:27:09.118Z,76.83
2022-09-14T06:29:37.440Z,76.82
2022-09-14T06:32:05.951Z,76.82
2022-09-14T06:34:34.356Z,76.49
2022-09-14T06:37:02.807Z,76.35
2022-09-14T06:39:31.814Z,75.94
2022-09-14T06:42:00.046Z,75.68
2022-09-14T06:44:30.417Z,75.39
2022-09-14T06:46:58.711Z,75.24
2022-09-14T06:49:26.942Z,74.63
2022-09-14T06:51:57.610Z,74.32
2022-09-14T06:54:25.898Z,74.09
2022-09-14T06:56:54.248Z,73.82
2022-09-14T06:59:22.581Z,73.47
2022-09-14T07:01:51.350Z,73.34
2022-09-14T07:04:19.656Z,72.82
2022-09-14T07:06:50.052Z,73.17
2022-09-14T07:09:20.403Z,73.05
2022-09-14T07:11:49.441Z,72.09
2022-09-14T07:14:17.768Z,72.57
2022-09-14T07:16:46.093Z,72.38
2022-09-14T07:19:15.275Z,72.09
2022-09-14T07:21:45.859Z,71.89
2022-09-14T07:24:15.130Z,71.33
2022-09-14T07:26:44.339Z,71.40
2022-09-14T07:29:17.398Z,70.49
2022-09-14T07:31:49.944Z,69.48
2022-09-14T07:34:19.280Z,68.91
2022-09-14T07:36:47.650Z,68.68
2022-09-14T07:39:18.054Z,68.29
2022-09-14T07:41:47.087Z,67.38
2022-09-14T07:44:17.560Z,67.83
2022-09-14T07:46:46.923Z,67.71
2022-09-14T07:49:16.540Z,68.27
2022-09-14T07:51:45.792Z,67.74
2022-09-14T07:54:16.677Z,67.99
2022-09-14T07:56:46.174Z,67.85
2022-09-14T07:59:35.162Z,67.46
2022-09-14T08:02:07.500Z,67.37
2022-09-14T08:04:36.981Z,66.43
2022-09-14T08:07:06.680Z,66.24
2022-09-14T08:09:35.200Z,66.02
2022-09-14T08:12:06.036Z,65.82
2022-09-14T08:14:34.518Z,66.06
2022-09-14T08:17:03.431Z,65.87
2022-09-14T08:19:31.599Z,66.41
2022-09-14T08:21:59.783Z,66.96
2022-09-14T08:24:28.046Z,67.46
2022-09-14T08:26:56.396Z,67.19
2022-09-14T08:29:24.659Z,67.88
2022-09-14T08:31:53.396Z,67.89
2022-09-14T08:34:21.826Z,68.12
2022-09-14T08:36:50.346Z,68.00
2022-09-14T08:39:18.602Z,69.01
2022-09-14T08:41:59.692Z,69.07
2022-09-14T08:44:31.891Z,69.03
2022-09-14T08:47:00.167Z,68.52
2022-09-14T08:49:48.699Z,68.20
2022-09-14T08:52:31.467Z,68.10
2022-09-14T08:55:02.118Z,68.14
2022-09-14T08:57:44.521Z,68.08
2022-09-14T09:00:21.098Z,67.71
2022-09-14T09:02:55.217Z,67.65
2022-09-14T09:06:02.714Z,67.34
2022-09-14T09:08:43.723Z,68.02
2022-09-14T09:11:19.923Z,66.11
2022-09-14T09:13:51.441Z,66.16
2022-09-14T09:16:24.405Z,66.66
2022-09-14T09:18:59.662Z,66.61
2022-09-14T09:21:35.815Z,66.81
2022-09-14T09:24:37.305Z,66.31
2022-09-14T09:27:14.550Z,65.37
2022-09-14T09:29:44.272Z,65.04
2022-09-14T09:32:19.734Z,62.84
2022-09-14T09:35:17.368Z,62.09
2022-09-14T09:37:55.519Z,64.02
2022-09-14T09:40:38.151Z,62.89
2022-09-14T09:43:10.185Z,62.75
2022-09-14T09:45:52.184Z,64.03
2022-09-14T09:48:24.752Z,62.67
2022-09-14T09:51:02.114Z,60.11
2022-09-14T09:53:33.639Z,61.58
2022-09-14T09:56:03.038Z,61.06
2022-09-14T09:58:31.369Z,60.18
2022-09-14T10:01:12.102Z,59.69
2022-09-14T10:03:43.358Z,59.45
2022-09-14T10:06:14.978Z,59.37
2022-09-14T10:08:47.785Z,58.23
2022-09-14T10:11:36.917Z,56.92
2022-09-14T10:14:19.320Z,57.90
2022-09-14T10:16:48.328Z,57.92
2022-09-14T10:19:26.236Z,57.31
2022-09-14T10:22:26.653Z,56.73
2022-09-14T10:24:57.333Z,56.26
2022-09-14T10:27:49.126Z,55.73
2022-09-14T10:30:23.747Z,55.23
2022-09-14T10:32:58.171Z,55.15
2022-09-14T10:35:40.200Z,56.54
2022-09-14T10:38:24.921Z,57.21
2022-09-14T10:41:16.597Z,58.03
2022-09-14T10:44:07.863Z,58.82
2022-09-14T10:47:10.054Z,58.81
2022-09-14T10:50:11.701Z,57.93
2022-09-14T10:52:49.239Z,56.70
2022-09-14T10:55:44.119Z,55.55
2022-09-14T10:58:24.410Z,54.88
2022-09-14T11:01:18.354Z,55.12
2022-09-14T11:03:59.155Z,55.54
2022-09-14T11:06:46.423Z,55.31
2022-09-14T11:09:40.711Z,55.13
2022-09-14T11:12:09.072Z,54.68
2022-09-14T11:15:00.863Z,54.74
2022-09-14T11:18:20.521Z,55.42
2022-09-14T11:21:16.649Z,57.13
2022-09-14T11:24:12.246Z,58.26
2022-09-14T11:26:59.207Z,58.79
2022-09-14T11:29:36.342Z,59.33
2022-09-14T11:32:21.483Z,59.43
2022-09-14T11:35:14.485Z,59.75
2022-09-14T11:37:49.417Z,60.25
2022-09-14T11:40:55.751Z,60.25
2022-09-14T11:43:31.490Z,61.53
2022-09-14T11:46:38.766Z,61.82
2022-09-14T11:49:16.181Z,62.45
2022-09-14T11:51:54.702Z,62.51
2022-09-14T11:54:24.812Z,61.30
2022-09-14T11:57:00.613Z,60.99
2022-09-14T11:59:37.970Z,61.13
2022-09-14T12:02:27.919Z,61.77
2022-09-14T12:05:08.558Z,62.31
2022-09-14T12:07:43.979Z,62.54
2022-09-14T12:10:19.216Z,62.78
2022-09-14T12:13:14.066Z,63.32
2022-09-14T12:15:42.609Z,63.60
2022-09-14T12:18:10.865Z,63.84
2022-09-14T12:21:09.486Z,64.67
2022-09-14T12:23:37.749Z,65.51
2022-09-14T12:26:05.923Z,65.97
2022-09-14T12:28:35.335Z,65.94
2022-09-14T12:31:03.621Z,66.06
2022-09-14T12:33:34.431Z,66.47
2022-09-14T12:36:05.604Z,67.08
2022-09-14T12:38:42.704Z,67.87
2022-09-14T12:41:10.813Z,68.10
2022-09-14T12:43:42.041Z,68.55
2022-09-14T12:46:21.329Z,69.11
2022-09-14T12:48:59.173Z,70.07
2022-09-14T12:51:28.373Z,70.64
2022-09-14T12:54:03.545Z,71.06
2022-09-14T12:56:43.749Z,71.86
2022-09-14T12:59:37.442Z,72.70
2022-09-14T13:02:20.750Z,73.13
2022-09-14T13:04:54.514Z,73.67
2022-09-14T13:07:32.402Z,74.21
2022-09-14T13:10:03.132Z,74.28
2022-09-14T13:12:34.371Z,74.69
2022-09-14T13:15:25.882Z,75.44
2022-09-14T13:18:24.956Z,76.06
2022-09-14T13:20:58.830Z,76.61
2022-09-14T13:23:41.676Z,76.80
2022-09-14T13:26:23.519Z,77.40
2022-09-14T13:28:53.970Z,77.83
2022-09-14T13:31:35.688Z,78.14
2022-09-14T13:34:05.588Z,78.60
2022-09-14T13:36:37.155Z,78.79
2022-09-14T13:39:17.865Z,79.10
2022-09-14T13:41:46.343Z,79.48
2022-09-14T13:44:15.055Z,79.61
2022-09-14T13:46:43.555Z,79.98
2022-09-14T13:49:13.423Z,80.37
2022-09-14T13:51:41.578Z,80.67
2022-09-14T13:54:29.937Z,80.80
2022-09-14T13:57:27.925Z,81.21
2022-09-14T14:00:15.006Z,81.62
2022-09-14T14:03:01.110Z,81.85
2022-09-14T14:05:34.342Z,82.46
2022-09-14T14:08:05.007Z,82.81
2022-09-14T14:10:46.619Z,83.08
2022-09-14T14:13:25.759Z,83.24
2022-09-14T14:15:54.499Z,83.19
2022-09-14T14:18:41.635Z,83.57
2022-09-14T14:21:17.710Z,83.68
2022-09-14T14:24:02.947Z,84.46
2022-09-14T14:26:34.106Z,85.04
2022-09-14T14:29:09.938Z,85.53
2022-09-14T14:31:38.176Z,86.23
2022-09-14T14:34:19.552Z,86.54
2022-09-14T14:36:50.186Z,86.62
2022-09-14T14:39:24.814Z,86.81
2022-09-14T14:41:53.864Z,87.43
2022-09-14T14:44:28.443Z,87.08
2022-09-14T14:46:56.659Z,86.89
2022-09-14T14:49:25.682Z,86.89
2022-09-14T14:51:53.930Z,86.54
2022-09-14T14:54:22.112Z,86.28
2022-09-14T14:56:51.946Z,86.54
2022-09-14T14:59:20.113Z,86.59
2022-09-14T15:01:50.424Z,86.51
2022-09-14T15:04:19.072Z,87.05
2022-09-14T15:06:49.524Z,87.14
2022-09-14T15:09:23.179Z,87.36
2022-09-14T15:12:09.627Z,87.40
2022-09-14T15:14:38.162Z,87.31
2022-09-14T15:17:06.603Z,87.27
2022-09-14T15:19:35.778Z,87.51
2022-09-14T15:22:04.174Z,87.49
2022-09-14T15:24:32.442Z,87.65
2022-09-14T15:27:00.679Z,87.60
2022-09-14T15:29:29.411Z,87.82
2022-09-14T15:31:58.156Z,87.97
2022-09-14T15:34:26.368Z,88.47
2022-09-14T15:36:54.984Z,88.56
2022-09-14T15:39:26.118Z,88.88
2022-09-14T15:41:56.161Z,89.15
2022-09-14T15:44:25.089Z,89.24
2022-09-14T15:46:53.369Z,89.31
2022-09-14T15:49:25.005Z,89.62
2022-09-14T15:51:58.185Z,89.80
2022-09-14T15:54:32.721Z,90.04
2022-09-14T15:57:01.465Z,90.18
2022-09-14T15:59:29.956Z,90.45
2022-09-14T16:01:58.417Z,90.67
2022-09-14T16:04:26.939Z,90.93
2022-09-14T16:06:56.336Z,91.22
2022-09-14T16:09:24.643Z,91.52
2022-09-14T16:11:53.025Z,91.88
2022-09-14T16:14:21.473Z,92.05
2022-09-14T16:16:49.670Z,92.13
2022-09-14T16:19:18.107Z,92.32
2022-09-14T16:21:48.412Z,92.40
2022-09-14T16:24:22.169Z,92.53
2022-09-14T16:26:50.713Z,92.66
2022-09-14T16:29:21.078Z,93.06
2022-09-14T16:31:50.297Z,93.19
2022-09-14T16:34:22.298Z,93.40
2022-09-14T16:36:51.840Z,93.53
2022-09-14T16:39:23.666Z,93.61
2022-09-14T16:41:54.360Z,93.79
2022-09-14T16:44:26.143Z,93.96
2022-09-14T16:46:57.824Z,94.06
2022-09-14T16:49:28.120Z,93.96
2022-09-14T16:52:00.863Z,94.17
2022-09-14T16:54:32.674Z,94.57
2022-09-14T16:57:01.634Z,94.89
2022-09-14T16:59:29.887Z,95.09
2022-09-14T17:01:58.229Z,95.27
2022-09-14T17:04:26.648Z,95.42
2022-09-14T17:06:56.387Z,95.92
2022-09-14T17:09:27.669Z,96.23
2022-09-14T17:11:57.971Z,96.60
2022-09-14T17:14:31.974Z,96.88
2022-09-14T17:17:00.480Z,97.29
2022-09-14T17:19:30.035Z,97.23
2022-09-14T17:21:58.632Z,97.58
2022-09-14T17:24:26.925Z,97.80
2022-09-14T17:27:24.007Z,98.09
2022-09-14T17:29:53.301Z,98.34
2022-09-14T17:32:21.787Z,98.57
2022-09-14T17:34:50.222Z,98.80
2022-09-14T17:37:18.694Z,99.06
2022-09-14T17:39:49.191Z,99.29
2022-09-14T17:42:17.463Z,99.36
2022-09-14T17:44:45.770Z,99.44
2022-09-14T17:47:14.616Z,99.82
2022-09-14T17:49:42.906Z,99.84
2022-09-14T17:52:11.127Z,99.97
2022-09-14T17:54:39.437Z,100.00
2022-09-14T17:57:08.925Z,100.00
2022-09-14T17:59:38.771Z,100.00
2022-09-14T18:02:07.130Z,100.00
2022-09-14T18:04:35.404Z,100.00
2022-09-14T18:07:05.106Z,100.00
2022-09-14T18:09:34.056Z,100.00
2022-09-14T18:12:02.550Z,100.00
2022-09-14T18:14:31.183Z,100.00
2022-09-14T18:17:00.234Z,100.00
2022-09-14T18:19:29.162Z,100.00
2022-09-14T18:21:57.563Z,100.00
2022-09-14T18:24:25.805Z,100.00
2022-09-14T18:26:54.016Z,100.00
2022-09-14T18:29:23.300Z,100.00
2022-09-14T18:31:53.551Z,100.00
2022-09-14T18:34:23.701Z,100.00
2022-09-14T18:36:55.031Z,100.00
2022-09-14T18:39:23.353Z,100.00
2022-09-14T18:41:56.510Z,100.00
2022-09-14T18:44:27.809Z,100.00
2022-09-14T18:46:56.366Z,100.00
2022-09-14T18:49:24.871Z,100.00
2022-09-14T18:51:53.346Z,100.00
2022-09-14T18:54:27.267Z,100.00
2022-09-14T18:56:56.155Z,100.00
2022-09-14T18:59:24.676Z,100.00
2022-09-14T19:01:53.018Z,100.00
2022-09-14T19:04:21.468Z,100.00
2022-09-14T19:06:50.458Z,100.00
2022-09-14T19:09:19.935Z,100.00
2022-09-14T19:11:48.452Z,100.00
2022-09-14T19:14:17.923Z,100.00
2022-09-14T19:16:46.830Z,100.00
2022-09-14T19:19:17.125Z,100.00
2022-09-14T19:21:47.786Z,100.00
2022-09-14T19:24:17.645Z,100.00
2022-09-14T19:26:49.043Z,100.00
2022-09-14T19:29:20.869Z,100.00
2022-09-14T19:31:52.532Z,100.00
2022-09-14T19:34:22.981Z,100.00
2022-09-14T19:36:52.155Z,100.00
2022-09-14T19:39:22.776Z,100.00
2022-09-14T19:41:51.691Z,100.00
2022-09-14T19:44:22.501Z,100.00
2022-09-14T19:46:51.258Z,100.00
2022-09-14T19:49:23.014Z,100.00
2022-09-14T19:51:52.820Z,100.00
2022-09-14T19:54:21.201Z,100.00
2022-09-14T19:56:49.695Z,100.00
2022-09-14T19:59:20.701Z,100.00
2022-09-14T20:01:49.875Z,100.00
2022-09-14T20:04:18.742Z,100.00
2022-09-14T20:06:48.258Z,100.00
2022-09-14T20:09:19.804Z,100.00
2022-09-14T20:11:51.207Z,100.00
2022-09-14T20:14:23.361Z,100.00
2022-09-14T20:16:54.782Z,100.00
2022-09-14T20:19:26.213Z,100.00
2022-09-14T20:21:55.669Z,100.00
2022-09-14T20:24:27.174Z,100.00
2022-09-14T20:26:59.769Z,100.00
2022-09-14T20:29:31.184Z,100.00
2022-09-14T20:32:00.288Z,100.00
2022-09-14T20:34:32.049Z,100.00
2022-09-14T20:37:00.760Z,100.00
2022-09-14T20:39:29.954Z,100.00
2022-09-14T20:41:58.230Z,100.00
2022-09-14T20:44:26.829Z,100.00
2022-09-14T20:46:57.379Z,100.00
2022-09-14T20:49:30.794Z,100.00
2022-09-14T20:52:03.627Z,100.00
2022-09-14T20:54:32.006Z,100.00
2022-09-14T20:57:04.295Z,100.00
2022-09-14T20:59:33.251Z,100.00
2022-09-14T21:04:49.896Z,100.00
2022-09-14T21:07:18.288Z,100.00
2022-09-14T21:09:46.731Z,100.00
2022-09-14T21:11:12.031Z,100.00
2022-09-14T21:12:16.859Z,100.00
2022-09-14T21:14:48.199Z,100.00
2022-09-14T21:17:18.006Z,100.00
2022-09-14T21:19:46.334Z,100.00
2022-09-14T21:22:14.717Z,100.00
2022-09-14T21:24:43.155Z,100.00
2022-09-14T21:27:11.611Z,100.00
2022-09-14T21:29:39.958Z,100.00
2022-09-14T21:32:09.100Z,100.00
2022-09-14T21:34:37.634Z,100.00
2022-09-14T21:37:06.043Z,100.00
2022-09-14T21:39:34.465Z,100.00
2022-09-14T21:42:06.563Z,100.00
2022-09-14T21:44:37.746Z,100.00
2022-09-14T21:47:07.575Z,100.00
2022-09-14T21:49:36.209Z,100.00
2022-09-14T21:52:05.235Z,100.00
2022-09-14T21:54:35.142Z,100.00
2022-09-14T21:57:29.173Z,100.00
2022-09-14T21:59:57.382Z,100.00
2022-09-14T22:02:25.876Z,100.00
2022-09-14T22:04:54.267Z,100.00
2022-09-14T22:07:22.475Z,100.00
2022-09-14T22:09:52.854Z,100.00
2022-09-14T22:12:25.654Z,100.00
2022-09-14T22:14:53.891Z,100.00
2022-09-14T22:17:22.178Z,100.00
2022-09-14T22:19:55.373Z,100.00
2022-09-14T22:22:23.700Z,100.00
2022-09-14T22:24:51.890Z,100.00
2022-09-14T22:27:20.334Z,100.00
2022-09-14T22:29:48.681Z,100.00
2022-09-14T22:32:16.894Z,100.00
2022-09-14T22:34:49.506Z,100.00
2022-09-14T22:37:18.095Z,100.00
2022-09-14T22:39:47.211Z,100.00
2022-09-14T22:42:16.507Z,100.00
2022-09-14T22:44:44.733Z,100.00
2022-09-14T22:47:13.020Z,100.00
2022-09-14T22:49:41.258Z,100.00
2022-09-14T22:52:09.615Z,100.00
2022-09-14T22:54:37.812Z,100.00
2022-09-14T22:57:06.141Z,100.00
2022-09-14T22:59:34.458Z,100.00
2022-09-14T23:02:02.759Z,100.00
2022-09-14T23:04:31.285Z,100.00
2022-09-14T23:07:00.424Z,100.00
2022-09-14T23:09:30.814Z,100.00
2022-09-14T23:11:59.038Z,100.00
2022-09-14T23:14:28.103Z,100.00
2022-09-14T23:16:56.415Z,100.00
2022-09-14T23:19:24.926Z,100.00
2022-09-14T23:21:53.192Z,100.00
2022-09-14T23:24:21.641Z,100.00
2022-09-14T23:26:49.931Z,100.00
2022-09-14T23:29:18.321Z,100.00
2022-09-14T23:31:46.741Z,100.00
2022-09-14T23:34:15.350Z,100.00
2022-09-14T23:36:43.935Z,100.00
2022-09-14T23:39:12.343Z,100.00
2022-09-14T23:41:40.905Z,100.00
2022-09-14T23:44:11.043Z,100.00
2022-09-14T23:46:39.336Z,100.00
2022-09-14T23:49:08.250Z,100.00
2022-09-14T23:51:37.786Z,100.00
2022-09-14T23:54:08.513Z,100.00
2022-09-14T23:56:38.876Z,100.00
2022-09-14T23:59:10.493Z,100.00
